Kenilworth, NJ

12:38 AM EDT on June 03, 2015 (GMT -0400)
Essex County | | Change Station
CLOSE
Current Station
Airport
Location: Caldwell,
Elevation: 174 ft
Nearby Weather Stations

Elev 174 ft 40.88 °N, 74.28 °W | Updated 45 minutes ago

Overcast
Overcast
53 °F
Feels Like 53 °F
N
5
Wind Variable Wind from East

Today
High -- | Low -- °F
--% Chance of Precip.
Yesterday
High -- | Low -- °F
Precip. -- in
5:27 AM 8:23 PM
Full, 100% visible
Pressure 30.21 in
Visibility 10.0 miles
Clouds Overcast 1200 ft
Dew Point 50 °F
Humidity 89%
Rainfall 0.45 in
Snow Depth Not available.
UV 0 out of 12
Pollen .90 out of 12
Air Quality Not available.
Flu Activity Sporadic
METAR KCDW 030353Z AUTO 10004KT 10SM OVC012 12/10 A3019 RMK AO2 SLP228 T01170100 TSNO

More Conditions Fewer Conditions

Pressure 30.21 in
Visibility 10.0 miles
Clouds Overcast 1200 ft
Dew Point 50 °F
Humidity 89%
Rainfall 0.45 in
Snow Depth Not available.
UV 0 out of 12
Pollen .90 out of 12
Air Quality Not available.
Flu Activity Sporadic
METAR KCDW 030353Z AUTO 10004KT 10SM OVC012 12/10 A3019 RMK AO2 SLP228 T01170100 TSNO

More Conditions Fewer Conditions

10-Day Weather Forecast

×

Almanac

Astronomy

Jun. 03, 2015 Rise Set
Actual Time
Civil Twilight
Nautical Twilight
Astronomical Twilight
Moon
Length of Visible Light
Length of Day
Tomorrow will be .
, % of the Moon is Illuminated

Today's Extremes

State Highs State Lows

Community

WunderPhotos

Upload Photos

1,826,164 photos uploaded!

WunderBlogs® & News

Nearby

Air Quality

  Air Quality AQ Index Pollutant
Not available.

Snow Depth

Station Depth Elevation

Earthquake Activity

City Distance Mag. Time & Date
Minimum magnitude displayed is 2.5.

Coastal Water Temperatures

Place Temperature

Stations

Nearby Weather Stations

Station Location Temp. Windchill Dew Point Humidity Wind Precip. Elev Updated Type